Language: 


Des rapports , des résumés tant et plus, au choix de chacun....


Données Historiques de Météogheer
Journalier Rapport pour Janvier 17, 2018 Unitée:  Impériale    Métrique   Les deux
Suivant Jour »
Journalier Hebdomadaire Mensuel Annuel Sur mesure
  Max: Min: Moyenne:
Température: 46.4 °F 36.3 °F 41 °F
Point de rosée: 39.2 °F 30.2 °F 33.8 °F
Humidité: 94% 55% 75%
Vent: 22.1mph 0mph 9.3mph
Rafales: 23.9mph - -
Vent- - West
Pression: 29.8 in 29.4 in -
Pluie: 0 in    
Historical Graphs
 
 
Données tabulaires pour Janvier 17, 2018
Heure Température Point de rosée Pression Vent Vent Rafales Humidité Pluie Taux (Horaire) Conditions
00:01 39.6 °F 37.4 °F 29.4 in West 14.1 mph 15.4 mph 94% 0 in
00:12 39.6 °F 37.4 °F 29.4 in West 17.2 mph 17.2 mph 94% 0 in
00:17 39.9 °F 35.6 °F 29.4 in WSW 12.1 mph 17.2 mph 85% 0 in
00:31 39.9 °F 35.6 °F 29.4 in West 15.2 mph 15.2 mph 85% 0 in
00:37 39.9 °F 35.6 °F 29.4 in WNW 12.8 mph 18.8 mph 85% 0 in
00:59 39.9 °F 35.6 °F 29.4 in West 14.8 mph 15.7 mph 85% 0 in
01:19 39.9 °F 35.6 °F 29.4 in West 6.3 mph 15.9 mph 85% 0 in
01:28 39.9 °F 35.6 °F 29.4 in West 9.6 mph 19.9 mph 85% 0 in
01:46 39.9 °F 35.6 °F 29.4 in West 8.1 mph 15.2 mph 85% 0 in
01:52 39.9 °F 35.6 °F 29.4 in West 5.4 mph 15.2 mph 85% 0 in
01:59 39.9 °F 35.6 °F 29.4 in WSW 7.8 mph 13.9 mph 85% 0 in
02:04 39.9 °F 35.6 °F 29.4 in West 9.8 mph 13.9 mph 85% 0 in
02:12 39.9 °F 33.8 °F 29.4 in WSW 6.5 mph 14.3 mph 75% 0 in
02:25 39.9 °F 33.8 °F 29.4 in West 8.7 mph 11.4 mph 75% 0 in
02:45 39.9 °F 33.8 °F 29.4 in West 11 mph 17.2 mph 75% 0 in
02:53 39.9 °F 33.8 °F 29.4 in WSW 17.4 mph 17.4 mph 75% 0 in
02:58 39.9 °F 33.8 °F 29.4 in WNW 14.3 mph 17.4 mph 75% 0 in
03:28 40.1 °F 32 °F 29.4 in West 12.3 mph 19.7 mph 71% 0 in
03:35 39.9 °F 32 °F 29.4 in WSW 10.3 mph 19.7 mph 71% 0 in
03:42 39.7 °F 32 °F 29.4 in WNW 7.8 mph 16.3 mph 71% 0 in
03:50 39.2 °F 30.2 °F 29.4 in West 16.3 mph 16.3 mph 71% 0 in
03:55 39 °F 32 °F 29.4 in WSW 8.5 mph 16.3 mph 72% 0 in
04:04 38.7 °F 30.2 °F 29.4 in SW 21.9 mph 21.9 mph 72% 0 in
04:12 38.5 °F 30.2 °F 29.4 in NW 8.5 mph 21.9 mph 72% 0 in
04:20 38.3 °F 30.2 °F 29.4 in West 15.4 mph 16.8 mph 73% 0 in
04:27 38.1 °F 30.2 °F 29.4 in WSW 13.6 mph 15.9 mph 73% 0 in
04:33 38.1 °F 30.2 °F 29.4 in WSW 10.5 mph 15.4 mph 73% 0 in
04:45 38.1 °F 30.2 °F 29.4 in West 10.3 mph 14.3 mph 73% 0 in
04:56 38.3 °F 30.2 °F 29.4 in WSW 11.9 mph 16.6 mph 73% 0 in
05:14 38.5 °F 30.2 °F 29.4 in WNW 3.8 mph 14.1 mph 72% 0 in
05:42 37.9 °F 30.2 °F 29.5 in WNW 6.3 mph 17.2 mph 71% 0 in
05:48 37.9 °F 30.2 °F 29.5 in West 7.4 mph 17.2 mph 71% 0 in
05:56 37.9 °F 30.2 °F 29.5 in West 9.8 mph 15.4 mph 71% 0 in
06:12 37.9 °F 30.2 °F 29.5 in WNW 13 mph 20.4 mph 71% 0 in
06:18 37.9 °F 30.2 °F 29.5 in SSW 17.4 mph 17.4 mph 72% 0 in
06:36 37.9 °F 30.2 °F 29.5 in West 17 mph 17 mph 72% 0 in
06:41 37.9 °F 30.2 °F 29.5 in WNW 2.9 mph 17 mph 72% 0 in
06:47 37.9 °F 30.2 °F 29.5 in WNW 4.3 mph 17.4 mph 72% 0 in
06:57 37.9 °F 30.2 °F 29.5 in WSW 6 mph 14.3 mph 72% 0 in
07:04 37.9 °F 30.2 °F 29.5 in South 8.5 mph 12.5 mph 72% 0 in
07:23 37.9 °F 30.2 °F 29.5 in SW 12.8 mph 17.2 mph 72% 0 in
07:35 37.4 °F 30.2 °F 29.5 in WNW 8.7 mph 19.5 mph 74% 0 in
07:44 37.8 °F 32 °F 29.6 in West 13.2 mph 15.2 mph 75% 0 in
07:51 37.9 °F 32 °F 29.6 in West 16.3 mph 16.3 mph 75% 0 in
08:12 37.9 °F 30.2 °F 29.6 in West 8.1 mph 17 mph 73% 0 in
08:30 37.8 °F 30.2 °F 29.6 in West 13 mph 13 mph 73% 0 in
08:35 37.6 °F 30.2 °F 29.6 in West 11.2 mph 13.9 mph 73% 0 in
08:47 37.4 °F 30.2 °F 29.6 in West 10.5 mph 15.2 mph 73% 0 in
08:56 37.6 °F 30.2 °F 29.6 in West 5.4 mph 17.2 mph 73% 0 in
09:09 37.9 °F 30.2 °F 29.6 in WSW 8.5 mph 19.7 mph 74% 0 in
09:17 37.9 °F 30.2 °F 29.6 in West 10.7 mph 15.7 mph 74% 0 in
09:23 37.9 °F 30.2 °F 29.6 in West 10.3 mph 15.9 mph 74% 0 in
09:43 38.5 °F 32 °F 29.6 in WSW 13.2 mph 16.8 mph 75% 0 in
09:50 38.5 °F 32 °F 29.6 in SW 5.8 mph 14.8 mph 75% 0 in
09:56 38.8 °F 32 °F 29.6 in WSW 11 mph 15.2 mph 75% 0 in
10:05 39.2 °F 32 °F 29.6 in West 8.5 mph 14.3 mph 74% 0 in
10:11 39.2 °F 32 °F 29.6 in WSW 16.3 mph 16.3 mph 74% 0 in
10:17 39.6 °F 32 °F 29.6 in SW 9.2 mph 16.3 mph 73% 0 in
10:32 40.3 °F 32 °F 29.7 in WSW 11.9 mph 20.8 mph 71% 0 in
10:48 41.4 °F 32 °F 29.7 in WSW 7.6 mph 14.5 mph 70% 0 in
10:56 41.9 °F 33.8 °F 29.7 in WNW 13 mph 16.1 mph 70% 0 in
11:02 42.3 °F 33.8 °F 29.7 in West 15.2 mph 15.4 mph 69% 0 in
11:17 43.2 °F 33.8 °F 29.6 in West 7.8 mph 15.4 mph 67% 0 in
11:22 43.5 °F 33.8 °F 29.6 in West 8.7 mph 11 mph 67% 0 in
11:29 43.7 °F 33.8 °F 29.7 in West 10.1 mph 17 mph 66% 0 in
11:36 43.7 °F 33.8 °F 29.7 in WSW 6.7 mph 17 mph 66% 0 in
11:41 44.1 °F 33.8 °F 29.7 in West 10.5 mph 19 mph 65% 0 in
11:47 44.2 °F 33.8 °F 29.7 in WSW 9.6 mph 19 mph 65% 0 in
11:54 44.2 °F 33.8 °F 29.7 in NW 12.5 mph 17.4 mph 64% 0 in
12:00 44.6 °F 33.8 °F 29.7 in NNW 14.8 mph 18.6 mph 63% 0 in
12:11 45 °F 32 °F 29.7 in WNW 7.8 mph 20.8 mph 61% 0 in
12:22 45.1 °F 32 °F 29.7 in NW 18.8 mph 23.3 mph 59% 0 in
12:35 45.3 °F 32 °F 29.7 in West 11.4 mph 19 mph 60% 0 in
12:46 45.5 °F 33.8 °F 29.7 in West 8.1 mph 19.7 mph 61% 0 in
12:53 45.7 °F 33.8 °F 29.7 in West 7.6 mph 19.7 mph 61% 0 in
12:58 45.9 °F 33.8 °F 29.7 in NW 17.2 mph 17.2 mph 60% 0 in
13:05 45.5 °F 32 °F 29.7 in West 11.2 mph 17.7 mph 59% 0 in
13:15 45.3 °F 32 °F 29.7 in North 10.1 mph 22.6 mph 60% 0 in
13:29 45.1 °F 32 °F 29.7 in SW 13.2 mph 23.9 mph 59% 0 in
13:38 45.3 °F 32 °F 29.7 in South 13.2 mph 23.3 mph 60% 0 in
13:52 45.5 °F 32 °F 29.7 in West 13.2 mph 23.5 mph 59% 0 in
14:05 46 °F 32 °F 29.7 in NW 13.4 mph 21.9 mph 57% 0 in
14:25 46.2 °F 32 °F 29.7 in West 18.6 mph 22.1 mph 56% 0 in
14:32 46.2 °F 32 °F 29.7 in WSW 22.1 mph 22.1 mph 56% 0 in
14:38 46.4 °F 32 °F 29.7 in West 10.7 mph 22.1 mph 56% 0 in
14:44 46.4 °F 32 °F 29.7 in West 17 mph 19.7 mph 57% 0 in
14:52 46.2 °F 30.2 °F 29.7 in WSW 15.7 mph 22.6 mph 55% 0 in
15:01 45.7 °F 30.2 °F 29.7 in WSW 10.1 mph 19.9 mph 56% 0 in
15:06 45.7 °F 32 °F 29.7 in WSW 12.8 mph 19.9 mph 58% 0 in
15:14 46.2 °F 33.8 °F 29.7 in WNW 9.8 mph 15.7 mph 59% 0 in
15:20 45.9 °F 32 °F 29.7 in West 17.2 mph 17.2 mph 58% 0 in
15:26 45.5 °F 33.8 °F 29.7 in West 17.2 mph 19.7 mph 60% 0 in
16:05 45 °F 33.8 °F 29.8 in West 7.2 mph 13.2 mph 64% 0 in
16:11 44.4 °F 33.8 °F 29.8 in WSW 9.4 mph 11 mph 66% 0 in
16:18 44.1 °F 33.8 °F 29.8 in West 8.5 mph 14.8 mph 68% 0 in
16:38 43.3 °F 33.8 °F 29.8 in WSW 12.8 mph 14.1 mph 70% 0 in
17:04 42.1 °F 33.8 °F 29.8 in WSW 8.5 mph 14.5 mph 72% 0 in
17:12 42.1 °F 33.8 °F 29.8 in WSW 9.6 mph 12.5 mph 73% 0 in
17:20 41.7 °F 33.8 °F 29.8 in West 9.6 mph 12.3 mph 73% 0 in
17:30 41.7 °F 33.8 °F 29.8 in West 6.5 mph 13.2 mph 74% 0 in
17:35 41.9 °F 35.6 °F 29.8 in West 10.1 mph 14.8 mph 75% 0 in
17:40 42.1 °F 35.6 °F 29.8 in WSW 11.2 mph 14.8 mph 75% 0 in
17:50 42.3 °F 35.6 °F 29.8 in West 9.6 mph 15.4 mph 74% 0 in
17:59 42.1 °F 35.6 °F 29.8 in WSW 8.1 mph 13.2 mph 74% 0 in
18:06 41.9 °F 35.6 °F 29.8 in WSW 8.1 mph 12.1 mph 74% 0 in
18:17 41.7 °F 35.6 °F 29.8 in WSW 8.7 mph 13.2 mph 75% 0 in
18:29 41.5 °F 35.6 °F 29.8 in West 7.6 mph 11.4 mph 75% 0 in
18:39 41.2 °F 33.8 °F 29.8 in Calm   10.5 mph 76% 0 in
18:46 40.8 °F 33.8 °F 29.8 in WSW 4 mph 8.1 mph 76% 0 in
18:55 40.5 °F 33.8 °F 29.8 in WSW 7.6 mph 7.6 mph 77% 0 in
19:07 41 °F 35.6 °F 29.8 in WSW 9.2 mph 10.3 mph 77% 0 in
19:17 40.6 °F 33.8 °F 29.8 in WSW 7.2 mph 9.8 mph 77% 0 in
19:29 39.7 °F 33.8 °F 29.8 in WSW 2.9 mph 6 mph 77% 0 in
19:45 39 °F 33.8 °F 29.8 in Calm   4.9 mph 78% 0 in
20:02 38.8 °F 33.8 °F 29.8 in Calm   4.7 mph 79% 0 in
20:12 38.1 °F 32 °F 29.8 in SW 4 mph 5.4 mph 79% 0 in
20:22 37.9 °F 33.8 °F 29.8 in WSW 4 mph 5.4 mph 80% 0 in
20:27 37.8 °F 33.8 °F 29.8 in WSW 4.3 mph 4.9 mph 81% 0 in
20:36 37.4 °F 32 °F 29.8 in Calm   4.3 mph 81% 0 in
20:41 37.2 °F 33.8 °F 29.8 in Calm   2.5 mph 82% 0 in
20:46 37 °F 33.8 °F 29.8 in Calm   2.5 mph 82% 0 in
20:51 36.7 °F 32 °F 29.8 in Calm   3.6 mph 82% 0 in
20:56 36.5 °F 32 °F 29.8 in Calm   3.6 mph 82% 0 in
21:01 36.3 °F 32 °F 29.8 in Calm   4 mph 83% 0 in
21:06 36.5 °F 32 °F 29.8 in Calm   4.7 mph 83% 0 in
21:12 37 °F 33.8 °F 29.8 in WSW 5.4 mph 5.8 mph 84% 0 in
21:17 37.4 °F 33.8 °F 29.8 in Calm   6.3 mph 85% 0 in
21:22 37.8 °F 33.8 °F 29.8 in West 5.6 mph 6.3 mph 86% 0 in
21:27 38.1 °F 33.8 °F 29.8 in WSW 3.8 mph 5.8 mph 86% 0 in
21:32 38.5 °F 35.6 °F 29.8 in WSW 5.6 mph 5.6 mph 86% 0 in
21:38 38.7 °F 35.6 °F 29.8 in WSW 5.6 mph 7.6 mph 86% 0 in
21:41 39 °F 35.6 °F 29.8 in WSW 6.9 mph 7.6 mph 87% 0 in
21:44 39 °F 35.6 °F 29.8 in SW 5.4 mph 8.5 mph 87% 0 in
21:46 39.4 °F 35.6 °F 29.8 in WSW 6 mph 8.5 mph 87% 0 in
21:51 39.7 °F 35.6 °F 29.8 in SW 5.4 mph 8.5 mph 86% 0 in
21:56 39.7 °F 35.6 °F 29.8 in WSW 4.9 mph 7.6 mph 86% 0 in
22:02 39.9 °F 35.6 °F 29.8 in SW 6.7 mph 8.5 mph 86% 0 in
22:05 40.3 °F 37.4 °F 29.8 in WSW 8.7 mph 8.7 mph 86% 0 in
22:10 40.3 °F 37.4 °F 29.8 in WSW 6.7 mph 8.7 mph 86% 0 in
22:11 40.3 °F 37.4 °F 29.8 in WSW 5.8 mph 8.7 mph 86% 0 in
22:15 40.6 °F 37.4 °F 29.8 in WSW 6.5 mph 8.5 mph 85% 0 in
22:20 41.4 °F 37.4 °F 29.8 in WSW 8.7 mph 12.1 mph 85% 0 in
22:21 41.5 °F 37.4 °F 29.8 in West 17.4 mph 17.4 mph 85% 0 in
22:22 41.5 °F 37.4 °F 29.8 in West 10.1 mph 17.4 mph 85% 0 in
22:24 41.9 °F 39.2 °F 29.8 in WSW 6.7 mph 17.4 mph 85% 0 in
22:26 41.9 °F 39.2 °F 29.8 in West 8.1 mph 17.4 mph 85% 0 in
22:31 41.9 °F 39.2 °F 29.8 in West 13.2 mph 13.2 mph 85% 0 in
22:32 41.9 °F 39.2 °F 29.8 in WSW 12.5 mph 14.1 mph 85% 0 in
22:33 41.9 °F 39.2 °F 29.8 in West 9.4 mph 14.1 mph 85% 0 in
22:37 43 °F 37.4 °F 29.8 in West 7.8 mph 14.1 mph 80% 0 in
22:39 43 °F 37.4 °F 29.8 in West 10.3 mph 14.1 mph 80% 0 in
22:44 43.2 °F 37.4 °F 29.8 in WSW 7.8 mph 14.1 mph 78% 0 in
22:48 43.2 °F 37.4 °F 29.8 in West 4.7 mph 12.3 mph 78% 0 in
22:49 43 °F 37.4 °F 29.8 in West 7.4 mph 12.3 mph 78% 0 in
22:53 43 °F 37.4 °F 29.8 in WSW 10.5 mph 12.1 mph 78% 0 in
22:59 43.2 °F 37.4 °F 29.7 in West 7.8 mph 10.7 mph 77% 0 in
23:04 43 °F 37.4 °F 29.7 in WSW 5.4 mph 10.7 mph 77% 0 in
23:09 43 °F 37.4 °F 29.7 in WSW 4.9 mph 10.7 mph 77% 0 in
23:14 42.8 °F 37.4 °F 29.7 in WSW 5.4 mph 9.8 mph 77% 0 in
23:19 42.4 °F 37.4 °F 29.7 in WSW 7.2 mph 8.5 mph 78% 0 in
23:24 42.4 °F 37.4 °F 29.7 in WSW 6 mph 7.6 mph 78% 0 in
23:29 42.4 °F 37.4 °F 29.7 in WSW 6 mph 7.6 mph 79% 0 in
23:34 42.4 °F 37.4 °F 29.7 in WSW 7.6 mph 9.8 mph 80% 0 in
23:39 42.4 °F 37.4 °F 29.7 in WSW 7.4 mph 10.5 mph 80% 0 in
23:44 42.4 °F 37.4 °F 29.7 in SW 6.5 mph 10.5 mph 80% 0 in
23:49 43 °F 37.4 °F 29.7 in WSW 13 mph 16.3 mph 80% 0 in
23:54 43.2 °F 37.4 °F 29.7 in WSW 14.3 mph 16.3 mph 80% 0 in
23:59 43.2 °F 37.4 °F 29.7 in WSW 10.1 mph 14.3 mph 81% 0 in
Données Historique de Météo Turbie

Mise a jour : 22/05/2018 03:56:12
Généré par Cumulus 1.9.4 (1099)